Time,TemperatureF,DewpointF,PressureIn,WindDirection,WindDirectionDegrees,WindSpeedMPH,WindSpeedGustMPH,Humidity,HourlyPrecipIn,Conditions,Clouds,dailyrainin,SoftwareType,DateUTC
2013-02-08 00:00:00,52.6,44.9,29.89,WSW,256,8.0,11.0,75,0.00,,,0.00,Wunderground v.1.15,2013-02-08 08:00:00,
2013-02-08 00:15:00,52.3,43.9,29.89,West,271,9.0,9.0,73,0.00,,,0.00,Wunderground v.1.15,2013-02-08 08:15:00,
2013-02-08 00:25:00,52.1,43.3,29.89,WNW,288,7.0,7.0,72,0.00,,,0.00,Wunderground v.1.15,2013-02-08 08:25:00,
2013-02-08 00:35:00,52.1,43.3,29.89,WSW,257,8.0,8.0,72,0.00,,,0.00,Wunderground v.1.15,2013-02-08 08:35:00,
2013-02-08 00:40:00,52.1,43.0,29.89,West,267,8.0,8.0,71,0.00,,,0.00,Wunderground v.1.15,2013-02-08 08:40:00,
2013-02-08 00:50:00,52.1,42.6,29.89,West,261,8.0,13.0,70,0.00,,,0.00,Wunderground v.1.15,2013-02-08 08:50:00,
2013-02-08 01:05:00,51.8,41.9,29.88,West,267,11.0,11.0,69,0.00,,,0.00,Wunderground v.1.15,2013-02-08 09:05:00,
2013-02-08 01:10:00,51.7,41.5,29.88,West,261,11.0,11.0,68,0.00,,,0.00,Wunderground v.1.15,2013-02-08 09:10:00,
2013-02-08 01:20:00,51.7,41.5,29.89,West,263,11.0,11.0,68,0.00,,,0.00,Wunderground v.1.15,2013-02-08 09:20:00,
2013-02-08 01:30:00,51.7,41.9,29.89,WSW,254,7.0,12.0,69,0.00,,,0.00,Wunderground v.1.15,2013-02-08 09:30:00,
2013-02-08 01:35:00,51.6,41.8,29.89,SW,233,7.0,12.0,69,0.00,,,0.00,Wunderground v.1.15,2013-02-08 09:35:00,
2013-02-08 01:45:00,51.4,41.2,29.89,West,261,10.0,13.0,68,0.00,,,0.00,Wunderground v.1.15,2013-02-08 09:45:00,
2013-02-08 01:50:00,51.3,40.7,29.89,West,268,10.0,13.0,67,0.00,,,0.00,Wunderground v.1.15,2013-02-08 09:50:00,
2013-02-08 01:56:00,51.1,40.9,29.89,West,261,8.0,10.0,68,0.00,,,0.00,Wunderground v.1.15,2013-02-08 09:56:00,
2013-02-08 02:00:00,51.1,40.5,29.89,West,275,8.0,13.0,67,0.00,,,0.00,Wunderground v.1.15,2013-02-08 10:00:00,
2013-02-08 02:05:00,51.1,40.5,29.89,WNW,282,10.0,13.0,67,0.00,,,0.00,Wunderground v.1.15,2013-02-08 10:05:00,
2013-02-08 02:11:00,51.0,40.4,29.89,West,264,11.0,11.0,67,0.00,,,0.00,Wunderground v.1.15,2013-02-08 10:11:00,
2013-02-08 02:15:00,51.0,39.6,29.88,West,260,11.0,11.0,65,0.00,,,0.00,Wunderground v.1.15,2013-02-08 10:15:00,
2013-02-08 02:26:00,50.8,39.5,29.88,WNW,296,10.0,10.0,65,0.00,,,0.00,Wunderground v.1.15,2013-02-08 10:26:00,
2013-02-08 02:30:00,50.8,39.5,29.88,West,277,10.0,10.0,65,0.00,,,0.00,Wunderground v.1.15,2013-02-08 10:30:00,
2013-02-08 02:35:00,50.8,39.5,29.88,WSW,257,10.0,13.0,65,0.00,,,0.00,Wunderground v.1.15,2013-02-08 10:35:00,
2013-02-08 02:40:00,51.0,39.2,29.88,WNW,298,10.0,10.0,64,0.00,,,0.00,Wunderground v.1.15,2013-02-08 10:40:00,
2013-02-08 02:50:00,50.7,39.0,29.88,West,260,8.0,11.0,64,0.00,,,0.00,Wunderground v.1.15,2013-02-08 10:50:00,
2013-02-08 02:55:00,50.5,38.0,29.88,WSW,251,8.0,11.0,62,0.00,,,0.00,Wunderground v.1.15,2013-02-08 10:55:00,
2013-02-08 03:05:00,50.4,37.4,29.87,West,272,7.0,7.0,61,0.00,,,0.00,Wunderground v.1.15,2013-02-08 11:05:00,
2013-02-08 03:15:00,50.2,37.3,29.87,WSW,258,7.0,7.0,61,0.00,,,0.00,Wunderground v.1.15,2013-02-08 11:15:00,
2013-02-08 03:30:00,49.9,37.4,29.87,WSW,254,7.0,11.0,62,0.00,,,0.00,Wunderground v.1.15,2013-02-08 11:30:00,
2013-02-08 03:35:00,49.9,37.4,29.87,West,264,8.0,11.0,62,0.00,,,0.00,Wunderground v.1.15,2013-02-08 11:35:00,
2013-02-08 03:41:00,49.8,36.9,29.87,West,267,6.0,6.0,61,0.00,,,0.00,Wunderground v.1.15,2013-02-08 11:41:00,
2013-02-08 03:45:00,49.8,36.9,29.87,West,274,6.0,7.0,61,0.00,,,0.00,Wunderground v.1.15,2013-02-08 11:45:00,
2013-02-08 03:55:00,49.9,37.0,29.87,SW,219,7.0,7.0,61,0.00,,,0.00,Wunderground v.1.15,2013-02-08 11:55:00,
2013-02-08 04:00:00,49.8,36.9,29.87,WSW,241,6.0,6.0,61,0.00,,,0.00,Wunderground v.1.15,2013-02-08 12:00:00,
2013-02-08 04:10:00,49.8,37.7,29.87,WNW,285,5.0,5.0,63,0.00,,,0.00,Wunderground v.1.15,2013-02-08 12:10:00,
2013-02-08 04:15:00,49.8,37.7,29.86,West,261,5.0,5.0,63,0.00,,,0.00,Wunderground v.1.15,2013-02-08 12:15:00,
2013-02-08 04:25:00,49.9,38.6,29.86,West,272,5.0,5.0,65,0.00,,,0.00,Wunderground v.1.15,2013-02-08 12:25:00,
2013-02-08 04:30:00,49.9,38.6,29.86,West,261,6.0,8.0,65,0.00,,,0.00,Wunderground v.1.15,2013-02-08 12:30:00,
2013-02-08 04:40:00,50.2,38.5,29.86,West,272,9.0,9.0,64,0.00,,,0.00,Wunderground v.1.15,2013-02-08 12:40:00,
2013-02-08 04:50:00,50.2,38.9,29.86,SW,232,10.0,10.0,65,0.00,,,0.00,Wunderground v.1.15,2013-02-08 12:50:00,
2013-02-08 04:55:00,50.4,39.1,29.86,West,261,10.0,12.0,65,0.00,,,0.00,Wunderground v.1.15,2013-02-08 12:55:00,
2013-02-08 05:05:00,50.4,39.1,29.86,SW,215,8.0,10.0,65,0.00,,,0.00,Wunderground v.1.15,2013-02-08 13:05:00,
2013-02-08 05:10:00,50.4,39.1,29.86,West,264,7.0,10.0,65,0.00,,,0.00,Wunderground v.1.15,2013-02-08 13:10:00,
2013-02-08 05:16:00,50.5,39.2,29.86,West,272,8.0,8.0,65,0.00,,,0.00,Wunderground v.1.15,2013-02-08 13:16:00,
2013-02-08 05:20:00,50.5,39.2,29.86,West,277,8.0,8.0,65,0.00,,,0.00,Wunderground v.1.15,2013-02-08 13:20:00,
2013-02-08 05:35:00,50.7,38.6,29.86,West,278,10.0,10.0,63,0.00,,,0.00,Wunderground v.1.15,2013-02-08 13:35:00,
2013-02-08 05:45:00,50.5,38.8,29.86,West,280,6.0,8.0,64,0.00,,,0.00,Wunderground v.1.15,2013-02-08 13:45:00,
2013-02-08 05:50:00,50.5,39.2,29.86,WNW,282,6.0,8.0,65,0.00,,,0.00,Wunderground v.1.15,2013-02-08 13:50:00,
2013-02-08 06:00:00,50.5,39.2,29.86,WNW,289,8.0,8.0,65,0.00,,,0.00,Wunderground v.1.15,2013-02-08 14:00:00,
2013-02-08 06:10:00,50.2,38.9,29.86,West,280,5.0,6.0,65,0.00,,,0.00,Wunderground v.1.15,2013-02-08 14:10:00,
2013-02-08 06:25:00,50.4,38.7,29.87,WSW,244,9.0,9.0,64,0.00,,,0.00,Wunderground v.1.15,2013-02-08 14:25:00,
2013-02-08 06:30:00,50.4,38.7,29.87,West,270,9.0,9.0,64,0.00,,,0.00,Wunderground v.1.15,2013-02-08 14:30:00,
2013-02-08 06:40:00,50.4,39.1,29.87,WSW,251,7.0,7.0,65,0.00,,,0.00,Wunderground v.1.15,2013-02-08 14:40:00,
2013-02-08 06:45:00,50.2,38.9,29.87,West,267,6.0,7.0,65,0.00,,,0.00,Wunderground v.1.15,2013-02-08 14:45:00,
2013-02-08 06:55:00,50.2,39.7,29.87,WSW,244,8.0,9.0,67,0.00,,,0.00,Wunderground v.1.15,2013-02-08 14:55:00,
2013-02-08 07:00:00,50.2,39.3,29.88,West,260,8.0,12.0,66,0.00,,,0.00,Wunderground v.1.15,2013-02-08 15:00:00,
2013-02-08 07:06:00,50.2,39.3,29.88,West,264,9.0,12.0,66,0.00,,,0.00,Wunderground v.1.15,2013-02-08 15:06:00,
2013-02-08 07:10:00,50.2,39.3,29.88,SW,234,9.0,9.0,66,0.00,,,0.00,Wunderground v.1.15,2013-02-08 15:10:00,
2013-02-08 07:20:00,50.1,39.6,29.88,West,280,5.0,5.0,67,0.00,,,0.00,Wunderground v.1.15,2013-02-08 15:20:00,
2013-02-08 07:35:00,50.2,39.3,29.89,West,268,6.0,6.0,66,0.00,,,0.00,Wunderground v.1.15,2013-02-08 15:35:00,
2013-02-08 07:40:00,50.4,39.5,29.89,WSW,246,8.0,8.0,66,0.00,,,0.00,Wunderground v.1.15,2013-02-08 15:40:00,
2013-02-08 07:50:00,50.5,39.6,29.89,SW,234,8.0,8.0,66,0.00,,,0.00,Wunderground v.1.15,2013-02-08 15:50:00,
2013-02-08 08:00:00,50.8,39.8,29.89,SW,216,5.0,5.0,66,0.00,,,0.00,Wunderground v.1.15,2013-02-08 16:00:00,
2013-02-08 08:05:00,50.8,39.8,29.89,West,270,6.0,8.0,66,0.00,,,0.00,Wunderground v.1.15,2013-02-08 16:05:00,
2013-02-08 08:15:00,51.0,39.6,29.89,West,260,7.0,7.0,65,0.00,,,0.00,Wunderground v.1.15,2013-02-08 16:15:00,
2013-02-08 08:20:00,51.0,40.0,29.89,SW,236,8.0,8.0,66,0.00,,,0.00,Wunderground v.1.15,2013-02-08 16:20:00,
2013-02-08 08:30:00,50.8,40.2,29.88,WSW,253,6.0,6.0,67,0.00,,,0.00,Wunderground v.1.15,2013-02-08 16:30:00,
2013-02-08 08:40:00,51.0,39.6,29.88,West,281,6.0,6.0,65,0.00,,,0.00,Wunderground v.1.15,2013-02-08 16:40:00,
2013-02-08 08:45:00,51.1,39.7,29.89,West,265,7.0,7.0,65,0.00,,,0.00,Wunderground v.1.15,2013-02-08 16:45:00,
2013-02-08 08:51:00,51.1,39.3,29.89,WSW,254,6.0,10.0,64,0.00,,,0.00,Wunderground v.1.15,2013-02-08 16:51:00,
2013-02-08 08:55:00,51.1,39.3,29.89,WSW,254,7.0,10.0,64,0.00,,,0.00,Wunderground v.1.15,2013-02-08 16:55:00,
2013-02-08 09:05:00,51.8,39.2,29.89,WSW,256,8.0,8.0,62,0.00,,,0.00,Wunderground v.1.15,2013-02-08 17:05:00,
2013-02-08 09:20:00,53.0,39.0,29.88,West,272,7.0,7.0,59,0.00,,,0.00,Wunderground v.1.15,2013-02-08 17:20:00,
2013-02-08 09:25:00,53.3,38.4,29.88,WSW,258,7.0,12.0,57,0.00,,,0.00,Wunderground v.1.15,2013-02-08 17:25:00,
2013-02-08 09:35:00,53.3,38.9,29.87,SW,232,7.0,10.0,58,0.00,,,0.00,Wunderground v.1.15,2013-02-08 17:35:00,
2013-02-08 09:45:00,53.5,40.4,29.87,SE,144,8.0,8.0,61,0.00,,,0.00,Wunderground v.1.15,2013-02-08 17:45:00,
2013-02-08 09:50:00,54.1,39.6,29.87,SSW,192,9.0,11.0,58,0.00,,,0.00,Wunderground v.1.15,2013-02-08 17:50:00,
2013-02-08 10:00:00,53.6,40.5,29.88,SW,227,11.0,18.0,61,0.00,,,0.00,Wunderground v.1.15,2013-02-08 18:00:00,
2013-02-08 10:05:00,52.4,41.8,29.88,West,270,11.0,18.0,67,0.25,,,0.02,Wunderground v.1.15,2013-02-08 18:05:00,
2013-02-08 10:15:00,48.1,40.9,29.89,NNW,328,9.0,9.0,76,0.09,,,0.09,Wunderground v.1.15,2013-02-08 18:15:00,
2013-02-08 10:30:00,45.9,41.0,29.90,West,277,7.0,7.0,83,0.16,,,0.16,Wunderground v.1.15,2013-02-08 18:30:00,
2013-02-08 10:35:00,45.8,41.2,29.90,NW,311,5.0,7.0,84,0.13,,,0.17,Wunderground v.1.15,2013-02-08 18:35:00,
2013-02-08 10:45:00,45.9,41.6,29.89,WNW,302,0.0,3.0,85,0.05,,,0.17,Wunderground v.1.15,2013-02-08 18:45:00,
2013-02-08 10:50:00,45.8,41.5,29.89,NW,304,2.0,3.0,85,0.04,,,0.17,Wunderground v.1.15,2013-02-08 18:50:00,
2013-02-08 11:00:00,47.7,43.7,29.88,SW,227,3.0,4.0,86,0.00,,,0.17,Wunderground v.1.15,2013-02-08 19:00:00,
2013-02-08 11:05:00,47.9,43.9,29.88,SW,222,5.0,6.0,86,0.00,,,0.17,Wunderground v.1.15,2013-02-08 19:05:00,
2013-02-08 11:15:00,48.6,44.0,29.87,West,268,4.0,5.0,84,0.00,,,0.17,Wunderground v.1.15,2013-02-08 19:15:00,
2013-02-08 11:30:00,48.6,43.4,29.87,SSE,167,6.0,6.0,82,0.00,,,0.17,Wunderground v.1.15,2013-02-08 19:30:00,
2013-02-08 11:35:00,48.7,43.1,29.87,South,176,6.0,7.0,81,0.00,,,0.17,Wunderground v.1.15,2013-02-08 19:35:00,
2013-02-08 11:45:00,49.0,43.1,29.86,SSW,200,7.0,7.0,80,0.00,,,0.17,Wunderground v.1.15,2013-02-08 19:45:00,
2013-02-08 12:00:00,48.9,43.6,29.86,South,188,5.0,5.0,82,0.00,,,0.18,Wunderground v.1.15,2013-02-08 20:00:00,
2013-02-08 12:05:00,48.9,43.6,29.86,WSW,246,5.0,5.0,82,0.00,,,0.18,Wunderground v.1.15,2013-02-08 20:05:00,
2013-02-08 12:15:00,48.9,43.3,29.85,SW,233,6.0,6.0,81,0.00,,,0.18,Wunderground v.1.15,2013-02-08 20:15:00,
2013-02-08 12:20:00,48.9,43.0,29.85,SW,224,7.0,7.0,80,0.00,,,0.18,Wunderground v.1.15,2013-02-08 20:20:00,
2013-02-08 12:30:00,48.7,42.8,29.84,SW,230,6.0,7.0,80,0.00,,,0.18,Wunderground v.1.15,2013-02-08 20:30:00,
2013-02-08 12:45:00,47.4,42.2,29.83,SW,229,7.0,7.0,82,0.10,,,0.21,Wunderground v.1.15,2013-02-08 20:45:00,
2013-02-08 12:50:00,47.4,42.5,29.83,SW,229,6.0,7.0,83,0.05,,,0.21,Wunderground v.1.15,2013-02-08 20:50:00,
2013-02-08 12:55:00,47.7,43.1,29.83,SW,236,4.0,4.0,84,0.04,,,0.21,Wunderground v.1.15,2013-02-08 20:55:00,
2013-02-08 13:10:00,48.4,43.5,29.83,WSW,240,7.0,9.0,83,0.00,,,0.22,Wunderground v.1.15,2013-02-08 21:10:00,
2013-02-08 13:15:00,48.6,43.0,29.81,SW,223,8.0,14.0,81,0.00,,,0.22,Wunderground v.1.15,2013-02-08 21:15:00,
2013-02-08 13:25:00,49.3,41.7,29.81,SW,215,10.0,14.0,75,0.00,,,0.22,Wunderground v.1.15,2013-02-08 21:25:00,
2013-02-08 13:30:00,49.5,40.8,29.81,SW,232,11.0,14.0,72,0.00,,,0.22,Wunderground v.1.15,2013-02-08 21:30:00,
2013-02-08 13:40:00,49.6,41.3,29.81,SW,222,10.0,10.0,73,0.00,,,0.22,Wunderground v.1.15,2013-02-08 21:40:00,
2013-02-08 13:45:00,50.2,42.2,29.81,WSW,256,9.0,10.0,74,0.00,,,0.22,Wunderground v.1.15,2013-02-08 21:45:00,
2013-02-08 13:55:00,51.6,42.5,29.81,SW,219,9.0,9.0,71,0.00,,,0.22,Wunderground v.1.15,2013-02-08 21:55:00,
2013-02-08 14:00:00,51.3,41.5,29.80,West,263,9.0,9.0,69,0.00,,,0.22,Wunderground v.1.15,2013-02-08 22:00:00,
2013-02-08 14:10:00,52.0,41.0,29.80,WNW,287,11.0,11.0,66,0.00,,,0.22,Wunderground v.1.15,2013-02-08 22:10:00,
2013-02-08 14:25:00,50.2,40.4,29.80,WSW,257,10.0,11.0,69,0.00,,,0.22,Wunderground v.1.15,2013-02-08 22:25:00,
2013-02-08 14:40:00,49.5,41.6,29.81,SW,229,10.0,10.0,74,0.00,,,0.22,Wunderground v.1.15,2013-02-08 22:40:00,
2013-02-08 14:55:00,50.5,37.1,29.79,WSW,251,12.0,12.0,60,0.00,,,0.22,Wunderground v.1.15,2013-02-08 22:55:00,
2013-02-08 15:00:00,50.5,37.5,29.79,WSW,239,11.0,11.0,61,0.00,,,0.22,Wunderground v.1.15,2013-02-08 23:00:00,
2013-02-08 15:11:00,50.1,37.6,29.79,WSW,251,11.0,11.0,62,0.00,,,0.22,Wunderground v.1.15,2013-02-08 23:11:00,
2013-02-08 15:15:00,50.1,37.6,29.79,WSW,240,11.0,14.0,62,0.00,,,0.22,Wunderground v.1.15,2013-02-08 23:15:00,
2013-02-08 15:20:00,50.2,37.7,29.79,WSW,241,12.0,14.0,62,0.00,,,0.22,Wunderground v.1.15,2013-02-08 23:20:00,
2013-02-08 15:30:00,50.7,37.3,29.79,SW,224,10.0,13.0,60,0.00,,,0.22,Wunderground v.1.15,2013-02-08 23:30:00,
2013-02-08 15:35:00,50.5,37.5,29.79,SW,230,10.0,13.0,61,0.00,,,0.22,Wunderground v.1.15,2013-02-08 23:35:00,
2013-02-08 15:45:00,51.4,36.7,29.78,WSW,240,10.0,18.0,57,0.00,,,0.22,Wunderground v.1.15,2013-02-08 23:45:00,
2013-02-08 16:00:00,51.0,36.3,29.78,WSW,241,11.0,12.0,57,0.00,,,0.22,Wunderground v.1.15,2013-02-09 00:00:00,
2013-02-08 16:15:00,50.4,37.0,29.78,WNW,282,7.0,7.0,60,0.00,,,0.22,Wunderground v.1.15,2013-02-09 00:15:00,
2013-02-08 16:20:00,50.4,37.4,29.78,West,270,6.0,7.0,61,0.00,,,0.22,Wunderground v.1.15,2013-02-09 00:20:00,
2013-02-08 16:30:00,50.2,36.8,29.78,SW,226,7.0,7.0,60,0.00,,,0.22,Wunderground v.1.15,2013-02-09 00:30:00,
2013-02-08 16:45:00,50.1,36.7,29.78,WSW,251,11.0,11.0,60,0.00,,,0.22,Wunderground v.1.15,2013-02-09 00:45:00,
2013-02-08 16:50:00,49.9,36.6,29.78,WNW,292,9.0,11.0,60,0.00,,,0.22,Wunderground v.1.15,2013-02-09 00:50:00,
2013-02-08 17:01:00,49.3,36.4,29.78,West,265,8.0,8.0,61,0.00,,,0.22,Wunderground v.1.15,2013-02-09 01:01:00,
2013-02-08 17:05:00,49.2,37.5,29.78,WNW,284,8.0,8.0,64,0.00,,,0.22,Wunderground v.1.15,2013-02-09 01:05:00,
2013-02-08 17:10:00,48.7,38.2,29.78,West,267,8.0,9.0,67,0.00,,,0.22,Wunderground v.1.15,2013-02-09 01:10:00,
2013-02-08 17:20:00,47.9,38.9,29.78,WSW,244,5.0,5.0,71,0.00,,,0.22,Wunderground v.1.15,2013-02-09 01:20:00,
2013-02-08 17:25:00,47.9,39.3,29.78,West,265,5.0,7.0,72,0.00,,,0.22,Wunderground v.1.15,2013-02-09 01:25:00,
2013-02-08 17:36:00,47.7,38.8,29.78,SW,223,5.0,5.0,71,0.00,,,0.22,Wunderground v.1.15,2013-02-09 01:36:00,
2013-02-08 17:40:00,47.7,38.8,29.78,West,278,5.0,5.0,71,0.00,,,0.22,Wunderground v.1.15,2013-02-09 01:40:00,
2013-02-08 17:45:00,47.7,39.1,29.79,NW,316,5.0,5.0,72,0.00,,,0.22,Wunderground v.1.15,2013-02-09 01:45:00,
2013-02-08 17:50:00,47.3,39.1,29.79,WNW,294,4.0,4.0,73,0.00,,,0.22,Wunderground v.1.15,2013-02-09 01:50:00,
2013-02-08 18:00:00,46.4,39.2,29.79,SW,227,5.0,5.0,76,0.00,,,0.23,Wunderground v.1.15,2013-02-09 02:00:00,
2013-02-08 18:05:00,46.2,39.1,29.79,SW,220,4.0,5.0,76,0.00,,,0.23,Wunderground v.1.15,2013-02-09 02:05:00,
2013-02-08 18:16:00,46.2,39.7,29.79,SW,220,0.0,0.0,78,0.00,,,0.23,Wunderground v.1.15,2013-02-09 02:16:00,
2013-02-08 18:20:00,46.1,39.6,29.79,SW,220,1.0,3.0,78,0.00,,,0.23,Wunderground v.1.15,2013-02-09 02:20:00,
2013-02-08 18:35:00,45.9,39.8,29.79,WSW,247,5.0,5.0,79,0.00,,,0.23,Wunderground v.1.15,2013-02-09 02:35:00,
2013-02-08 18:40:00,45.9,39.8,29.79,WSW,244,4.0,5.0,79,0.00,,,0.23,Wunderground v.1.15,2013-02-09 02:40:00,
2013-02-08 18:45:00,45.9,40.1,29.79,SW,217,3.0,5.0,80,0.00,,,0.23,Wunderground v.1.15,2013-02-09 02:45:00,
2013-02-08 18:55:00,46.1,40.3,29.79,WSW,256,2.0,2.0,80,0.00,,,0.23,Wunderground v.1.15,2013-02-09 02:55:00,
2013-02-08 19:05:00,45.9,40.1,29.79,SSW,195,1.0,2.0,80,0.00,,,0.24,Wunderground v.1.15,2013-02-09 03:05:00,
2013-02-08 19:16:00,45.9,40.7,29.79,SW,220,2.0,2.0,82,0.00,,,0.24,Wunderground v.1.15,2013-02-09 03:16:00,
2013-02-08 19:25:00,45.8,40.9,29.79,SSE,165,2.0,2.0,83,0.00,,,0.24,Wunderground v.1.15,2013-02-09 03:25:00,
2013-02-08 19:35:00,45.5,40.6,29.78,SSE,165,1.0,2.0,83,0.00,,,0.24,Wunderground v.1.15,2013-02-09 03:35:00,
2013-02-08 19:40:00,45.5,40.9,29.78,South,185,1.0,3.0,84,0.00,,,0.24,Wunderground v.1.15,2013-02-09 03:40:00,
2013-02-08 19:45:00,45.3,40.7,29.78,SSW,206,2.0,2.0,84,0.00,,,0.24,Wunderground v.1.15,2013-02-09 03:45:00,
2013-02-08 19:50:00,45.3,40.7,29.78,SW,217,2.0,2.0,84,0.00,,,0.24,Wunderground v.1.15,2013-02-09 03:50:00,
2013-02-08 20:05:00,45.3,40.4,29.78,SW,224,2.0,2.0,83,0.00,,,0.24,Wunderground v.1.15,2013-02-09 04:05:00,
2013-02-08 20:10:00,45.3,40.7,29.78,South,181,2.0,2.0,84,0.00,,,0.24,Wunderground v.1.15,2013-02-09 04:10:00,
2013-02-08 20:15:00,45.2,40.7,29.79,South,182,1.0,2.0,84,0.00,,,0.24,Wunderground v.1.15,2013-02-09 04:15:00,
2013-02-08 20:35:00,45.5,40.9,29.79,South,182,1.0,2.0,84,0.00,,,0.24,Wunderground v.1.15,2013-02-09 04:35:00,
2013-02-08 20:40:00,45.6,41.0,29.79,South,182,0.0,2.0,84,0.00,,,0.24,Wunderground v.1.15,2013-02-09 04:40:00,
2013-02-08 20:45:00,45.6,41.0,29.80,South,182,1.0,1.0,84,0.00,,,0.24,Wunderground v.1.15,2013-02-09 04:45:00,
2013-02-08 20:50:00,45.6,41.0,29.80,South,182,1.0,1.0,84,0.00,,,0.24,Wunderground v.1.15,2013-02-09 04:50:00,
2013-02-08 21:05:00,45.3,40.7,29.80,South,182,0.0,0.0,84,0.00,,,0.24,Wunderground v.1.15,2013-02-09 05:05:00,
2013-02-08 21:10:00,45.2,41.0,29.80,South,182,0.0,0.0,85,0.00,,,0.24,Wunderground v.1.15,2013-02-09 05:10:00,
2013-02-08 21:25:00,44.9,40.7,29.80,South,182,0.0,0.0,85,0.00,,,0.24,Wunderground v.1.15,2013-02-09 05:25:00,
2013-02-08 21:30:00,44.9,41.0,29.80,South,182,0.0,1.0,86,0.00,,,0.24,Wunderground v.1.15,2013-02-09 05:30:00,
2013-02-08 21:35:00,44.7,40.8,29.80,WNW,291,1.0,1.0,86,0.00,,,0.24,Wunderground v.1.15,2013-02-09 05:35:00,
2013-02-08 21:40:00,44.7,40.8,29.80,WNW,291,0.0,1.0,86,0.00,,,0.24,Wunderground v.1.15,2013-02-09 05:40:00,
2013-02-08 21:45:00,44.6,40.7,29.80,WNW,291,0.0,1.0,86,0.00,,,0.24,Wunderground v.1.15,2013-02-09 05:45:00,
2013-02-08 21:55:00,44.3,40.7,29.80,WNW,291,0.0,0.0,87,0.00,,,0.24,Wunderground v.1.15,2013-02-09 05:55:00,
2013-02-08 22:10:00,44.2,40.6,29.81,NNW,329,2.0,2.0,87,0.00,,,0.24,Wunderground v.1.15,2013-02-09 06:10:00,
2013-02-08 22:15:00,44.2,40.6,29.81,NNW,332,2.0,2.0,87,0.00,,,0.24,Wunderground v.1.15,2013-02-09 06:15:00,
2013-02-08 22:30:00,43.7,40.1,29.81,NNW,332,1.0,2.0,87,0.00,,,0.24,Wunderground v.1.15,2013-02-09 06:30:00,
2013-02-08 22:40:00,43.6,40.3,29.81,NNW,332,1.0,2.0,88,0.00,,,0.24,Wunderground v.1.15,2013-02-09 06:40:00,
2013-02-08 22:51:00,43.3,40.0,29.81,NNW,332,1.0,2.0,88,0.00,,,0.24,Wunderground v.1.15,2013-02-09 06:51:00,
2013-02-08 22:55:00,43.3,40.0,29.81,NNW,332,1.0,2.0,88,0.00,,,0.24,Wunderground v.1.15,2013-02-09 06:55:00,
2013-02-08 23:00:00,43.1,39.8,29.82,NNW,332,1.0,1.0,88,0.00,,,0.24,Wunderground v.1.15,2013-02-09 07:00:00,
2013-02-08 23:10:00,43.1,39.8,29.82,NNW,332,1.0,1.0,88,0.00,,,0.24,Wunderground v.1.15,2013-02-09 07:10:00,
2013-02-08 23:15:00,43.1,39.8,29.83,NNW,332,1.0,1.0,88,0.00,,,0.24,Wunderground v.1.15,2013-02-09 07:15:00,
2013-02-08 23:30:00,42.6,39.3,29.83,NNW,332,0.0,0.0,88,0.00,,,0.24,Wunderground v.1.15,2013-02-09 07:30:00,
2013-02-08 23:55:00,41.7,38.7,29.83,NNW,332,0.0,0.0,89,0.00,,,0.24,Wunderground v.1.15,2013-02-09 07:55:00,